createdAt,value
2023-03-29T00:00:13.948Z,0
2023-03-29T00:01:57.653Z,0
2023-03-29T00:03:41.373Z,1
2023-03-29T00:05:25.064Z,0
2023-03-29T00:07:08.773Z,0
2023-03-29T00:08:52.475Z,0
2023-03-29T00:10:36.181Z,0
2023-03-29T00:12:19.873Z,0
2023-03-29T00:14:03.616Z,0
2023-03-29T00:15:47.270Z,0
2023-03-29T00:17:30.973Z,0
2023-03-29T00:19:14.706Z,0
2023-03-29T00:20:58.384Z,0
2023-03-29T00:22:42.083Z,0
2023-03-29T00:24:25.802Z,0
2023-03-29T00:26:09.488Z,0
2023-03-29T00:27:53.196Z,0
2023-03-29T00:29:36.949Z,0
2023-03-29T00:31:20.605Z,0
2023-03-29T00:33:04.284Z,0
2023-03-29T00:34:48.015Z,0
2023-03-29T00:36:31.720Z,0
2023-03-29T00:38:15.414Z,0
2023-03-29T00:39:59.089Z,0
2023-03-29T00:41:42.798Z,0
2023-03-29T00:43:26.508Z,0
2023-03-29T00:45:10.211Z,0
2023-03-29T00:46:53.918Z,0
2023-03-29T00:48:37.603Z,0
2023-03-29T00:50:21.311Z,0
2023-03-29T00:52:05.009Z,0
2023-03-29T00:53:48.710Z,0
2023-03-29T00:55:32.404Z,0
2023-03-29T00:57:16.132Z,0
2023-03-29T00:58:59.829Z,0
2023-03-29T01:00:43.515Z,0
2023-03-29T01:02:27.232Z,0
2023-03-29T01:04:10.926Z,0
2023-03-29T01:05:54.638Z,0
2023-03-29T01:07:38.452Z,0
2023-03-29T01:09:22.053Z,0
2023-03-29T01:11:05.767Z,0
2023-03-29T01:12:49.447Z,0
2023-03-29T01:14:33.161Z,0
2023-03-29T01:16:16.859Z,0
2023-03-29T01:18:00.561Z,0
2023-03-29T01:19:44.241Z,0
2023-03-29T01:21:27.952Z,0
2023-03-29T01:23:11.660Z,0
2023-03-29T01:24:55.385Z,0
2023-03-29T01:26:39.066Z,0
2023-03-29T01:28:22.756Z,0
2023-03-29T01:30:06.456Z,0
2023-03-29T01:31:50.154Z,0
2023-03-29T01:35:17.574Z,0
2023-03-29T01:37:01.276Z,0
2023-03-29T01:38:44.993Z,0
2023-03-29T01:40:28.684Z,0
2023-03-29T01:42:12.370Z,0
2023-03-29T01:43:56.079Z,0
2023-03-29T01:45:39.782Z,0
2023-03-29T01:47:23.513Z,0
2023-03-29T01:49:07.182Z,0
2023-03-29T01:50:50.883Z,0
2023-03-29T01:52:34.577Z,0
2023-03-29T01:54:18.290Z,0
2023-03-29T01:56:01.991Z,0
2023-03-29T01:57:45.794Z,0
2023-03-29T01:59:29.422Z,0
2023-03-29T02:01:13.104Z,0
2023-03-29T02:02:56.799Z,0
2023-03-29T02:04:40.490Z,0
2023-03-29T02:06:24.206Z,0
2023-03-29T02:08:07.897Z,0
2023-03-29T02:09:51.616Z,0
2023-03-29T02:11:35.331Z,0
2023-03-29T02:13:19.021Z,0
2023-03-29T02:15:02.735Z,0
2023-03-29T02:16:46.427Z,0
2023-03-29T02:18:30.124Z,0
2023-03-29T02:20:13.851Z,0
2023-03-29T02:21:57.542Z,0
2023-03-29T02:23:41.236Z,0
2023-03-29T02:25:24.946Z,0
2023-03-29T02:27:08.653Z,0
2023-03-29T02:28:52.363Z,1
2023-03-29T02:30:36.065Z,0
2023-03-29T02:32:19.764Z,0
2023-03-29T02:34:03.457Z,0
2023-03-29T02:35:47.182Z,0
2023-03-29T02:37:30.863Z,0
2023-03-29T02:39:14.555Z,0
2023-03-29T02:40:58.289Z,0
2023-03-29T02:42:41.986Z,0
2023-03-29T02:44:25.671Z,0
2023-03-29T02:46:09.388Z,0
2023-03-29T02:47:53.115Z,0
2023-03-29T02:49:36.796Z,0
2023-03-29T02:51:20.502Z,0
2023-03-29T02:53:04.194Z,0
2023-03-29T02:54:47.899Z,0
2023-03-29T02:56:31.625Z,0
2023-03-29T02:58:15.311Z,0
2023-03-29T02:59:59.033Z,0
2023-03-29T03:01:42.737Z,0
2023-03-29T03:03:26.417Z,0
2023-03-29T03:05:10.124Z,0
2023-03-29T03:06:53.877Z,0
2023-03-29T03:08:37.546Z,0
2023-03-29T03:10:21.250Z,0
2023-03-29T03:12:04.931Z,0
2023-03-29T03:13:48.646Z,0
2023-03-29T03:15:32.342Z,0
2023-03-29T03:17:16.060Z,0
2023-03-29T03:18:59.745Z,0
2023-03-29T03:20:43.465Z,0
2023-03-29T03:22:27.162Z,0
2023-03-29T03:24:10.860Z,0
2023-03-29T03:25:54.594Z,0
2023-03-29T03:27:38.255Z,0
2023-03-29T03:29:21.974Z,0
2023-03-29T03:31:05.675Z,0
2023-03-29T03:32:49.372Z,0
2023-03-29T03:34:33.068Z,0
2023-03-29T03:36:16.792Z,0
2023-03-29T03:38:00.502Z,0
2023-03-29T03:39:44.183Z,0
2023-03-29T03:41:27.902Z,0
2023-03-29T03:43:11.595Z,0
2023-03-29T03:44:55.334Z,0
2023-03-29T03:46:38.981Z,0
2023-03-29T03:48:22.699Z,0
2023-03-29T03:50:06.408Z,0
2023-03-29T03:51:50.107Z,0
2023-03-29T03:53:33.809Z,0
2023-03-29T03:55:17.501Z,0
2023-03-29T03:57:01.198Z,0
2023-03-29T03:58:44.900Z,0
2023-03-29T04:00:28.609Z,0
2023-03-29T04:02:12.298Z,0
2023-03-29T04:03:56.006Z,0
2023-03-29T04:05:39.722Z,0
2023-03-29T04:07:23.401Z,0
2023-03-29T04:09:07.189Z,0
2023-03-29T04:10:50.832Z,0
2023-03-29T04:12:34.514Z,0
2023-03-29T04:14:18.257Z,0
2023-03-29T04:16:01.935Z,0
2023-03-29T04:17:45.807Z,0
2023-03-29T04:19:29.358Z,0
2023-03-29T04:21:13.078Z,0
2023-03-29T04:22:56.740Z,0
2023-03-29T04:24:40.456Z,0
2023-03-29T04:26:24.167Z,0
2023-03-29T04:28:07.851Z,0
2023-03-29T04:29:51.568Z,0
2023-03-29T04:31:35.265Z,0
2023-03-29T04:33:18.975Z,0
2023-03-29T04:35:02.671Z,0
2023-03-29T04:36:46.370Z,0
2023-03-29T04:38:30.074Z,0
2023-03-29T04:40:13.804Z,0
2023-03-29T04:41:57.472Z,0
2023-03-29T04:43:41.185Z,0
2023-03-29T04:45:24.926Z,0
2023-03-29T04:47:08.592Z,0
2023-03-29T04:48:52.309Z,0
2023-03-29T04:50:36.053Z,0
2023-03-29T04:52:19.703Z,0
2023-03-29T04:54:03.406Z,1
2023-03-29T04:55:47.099Z,1
2023-03-29T04:57:30.805Z,1
2023-03-29T04:59:14.496Z,1
2023-03-29T05:00:58.208Z,3
2023-03-29T05:02:41.895Z,3
2023-03-29T05:04:25.603Z,3
2023-03-29T05:06:09.318Z,4
2023-03-29T05:07:53.003Z,4
2023-03-29T05:09:36.713Z,3
2023-03-29T05:11:20.462Z,4
2023-03-29T05:13:04.120Z,6
2023-03-29T05:14:47.811Z,7
2023-03-29T05:16:31.518Z,9
2023-03-29T05:18:15.232Z,10
2023-03-29T05:19:58.930Z,11
2023-03-29T05:21:42.625Z,13
2023-03-29T05:23:26.326Z,14
2023-03-29T05:25:10.021Z,16
2023-03-29T05:26:53.770Z,17
2023-03-29T05:28:37.416Z,18
2023-03-29T05:30:21.133Z,18
2023-03-29T05:32:04.841Z,17
2023-03-29T05:33:48.636Z,18
2023-03-29T05:35:32.246Z,19
2023-03-29T05:37:15.935Z,20
2023-03-29T05:38:59.648Z,20
2023-03-29T05:40:43.333Z,22
2023-03-29T05:42:27.058Z,24
2023-03-29T05:44:10.739Z,27
2023-03-29T05:45:54.438Z,29
2023-03-29T05:47:38.155Z,31
2023-03-29T05:49:21.832Z,34
2023-03-29T05:51:05.542Z,37
2023-03-29T05:52:49.244Z,42
2023-03-29T05:54:32.979Z,44
2023-03-29T05:56:16.700Z,48
2023-03-29T05:58:00.352Z,52
2023-03-29T05:59:44.045Z,54
2023-03-29T06:01:27.748Z,53
2023-03-29T06:03:11.454Z,52
2023-03-29T06:04:55.163Z,50
2023-03-29T06:06:38.860Z,49
2023-03-29T06:08:22.564Z,52
2023-03-29T06:10:06.316Z,55
2023-03-29T06:11:49.965Z,59
2023-03-29T06:13:33.660Z,65
2023-03-29T06:15:17.413Z,69
2023-03-29T06:17:01.066Z,75
2023-03-29T06:18:44.769Z,75
2023-03-29T06:20:28.484Z,77
2023-03-29T06:22:12.181Z,80
2023-03-29T06:23:55.898Z,85
2023-03-29T06:25:39.598Z,83
2023-03-29T06:27:23.291Z,82
2023-03-29T06:29:07.005Z,87
2023-03-29T06:30:50.697Z,88
2023-03-29T06:32:34.411Z,84
2023-03-29T06:34:18.128Z,83
2023-03-29T06:36:01.839Z,93
2023-03-29T06:37:45.528Z,100
2023-03-29T06:39:29.403Z,775
2023-03-29T06:41:12.941Z,775
2023-03-29T06:42:56.630Z,775
2023-03-29T06:44:40.337Z,773
2023-03-29T06:46:24.043Z,776
2023-03-29T06:48:07.746Z,776
2023-03-29T06:49:51.436Z,774
2023-03-29T06:51:35.159Z,775
2023-03-29T06:53:18.863Z,763
2023-03-29T06:55:02.531Z,776
2023-03-29T06:56:46.245Z,775
2023-03-29T06:58:29.958Z,775
2023-03-29T07:00:13.638Z,775
2023-03-29T07:01:57.338Z,776
2023-03-29T07:03:41.137Z,776
2023-03-29T07:05:24.770Z,775
2023-03-29T07:07:08.449Z,776
2023-03-29T07:08:52.168Z,774
2023-03-29T07:10:35.852Z,775
2023-03-29T07:12:19.557Z,776
2023-03-29T07:14:03.262Z,776
2023-03-29T07:15:46.954Z,775
2023-03-29T07:17:30.655Z,776
2023-03-29T07:19:14.356Z,776
2023-03-29T07:20:58.046Z,776
2023-03-29T07:22:41.773Z,776
2023-03-29T07:24:25.472Z,776
2023-03-29T07:26:09.181Z,776
2023-03-29T07:27:53.194Z,776
2023-03-29T07:29:36.561Z,776
2023-03-29T07:31:20.271Z,776
2023-03-29T07:33:03.963Z,776
2023-03-29T07:34:47.671Z,776
2023-03-29T07:36:31.375Z,776
2023-03-29T07:38:15.069Z,775
2023-03-29T07:39:58.785Z,776
2023-03-29T07:41:42.696Z,776
2023-03-29T07:43:26.169Z,776
2023-03-29T07:45:09.874Z,776
2023-03-29T07:46:53.578Z,776
2023-03-29T07:48:37.282Z,775
2023-03-29T07:50:20.997Z,776
2023-03-29T07:52:04.680Z,775
2023-03-29T07:53:48.426Z,776
2023-03-29T07:55:32.101Z,774
2023-03-29T07:57:15.803Z,776
2023-03-29T07:58:59.504Z,776
2023-03-29T08:00:43.203Z,776
2023-03-29T08:02:26.892Z,775
2023-03-29T08:04:10.618Z,776
2023-03-29T08:05:54.321Z,776
2023-03-29T08:07:38.015Z,776
2023-03-29T08:09:21.699Z,776
2023-03-29T08:11:05.420Z,776
2023-03-29T08:12:49.098Z,776
2023-03-29T08:14:32.901Z,776
2023-03-29T08:16:16.545Z,776
2023-03-29T08:18:00.220Z,776
2023-03-29T08:19:43.923Z,777
2023-03-29T08:21:27.628Z,777
2023-03-29T08:23:11.332Z,776
2023-03-29T08:24:55.018Z,776
2023-03-29T08:26:38.713Z,777
2023-03-29T08:28:22.437Z,777
2023-03-29T08:30:06.184Z,776
2023-03-29T08:31:49.834Z,777
2023-03-29T08:33:33.518Z,776
2023-03-29T08:35:17.252Z,777
2023-03-29T08:37:00.939Z,776
2023-03-29T08:38:44.748Z,777
2023-03-29T08:40:28.330Z,777
2023-03-29T08:42:12.085Z,777
2023-03-29T08:43:55.740Z,777
2023-03-29T08:45:39.495Z,776
2023-03-29T08:47:23.148Z,776
2023-03-29T08:49:06.850Z,777
2023-03-29T08:50:50.602Z,776
2023-03-29T08:52:34.249Z,777
2023-03-29T08:54:17.956Z,777
2023-03-29T08:56:01.673Z,776
2023-03-29T08:57:45.367Z,777
2023-03-29T08:59:29.067Z,776
2023-03-29T09:01:12.849Z,776
2023-03-29T09:02:56.471Z,776
2023-03-29T09:04:40.182Z,776
2023-03-29T09:06:23.874Z,776
2023-03-29T09:08:07.580Z,776
2023-03-29T09:09:51.282Z,776
2023-03-29T09:11:34.987Z,777
2023-03-29T09:13:18.833Z,774
2023-03-29T09:15:02.406Z,776
2023-03-29T09:16:46.108Z,777
2023-03-29T09:18:29.783Z,776
2023-03-29T09:20:13.500Z,777
2023-03-29T09:21:57.178Z,776
2023-03-29T09:23:40.913Z,777
2023-03-29T09:25:24.614Z,776
2023-03-29T09:27:08.304Z,777
2023-03-29T09:28:51.988Z,777
2023-03-29T09:30:35.716Z,777
2023-03-29T09:32:19.396Z,777
2023-03-29T09:34:03.105Z,777
2023-03-29T09:35:46.796Z,778
2023-03-29T09:37:30.502Z,778
2023-03-29T09:39:14.209Z,777
2023-03-29T09:40:57.929Z,777
2023-03-29T09:42:41.614Z,778
2023-03-29T09:44:25.303Z,777
2023-03-29T09:46:09.010Z,778
2023-03-29T09:47:52.741Z,778
2023-03-29T09:49:36.412Z,778
2023-03-29T09:51:20.108Z,778
2023-03-29T09:53:03.854Z,777
2023-03-29T09:54:47.515Z,777
2023-03-29T09:56:31.231Z,778
2023-03-29T09:58:14.936Z,778
2023-03-29T09:59:58.627Z,777
2023-03-29T10:01:42.337Z,778
2023-03-29T10:03:26.057Z,778
2023-03-29T10:05:09.755Z,777
2023-03-29T10:06:53.451Z,778
2023-03-29T10:08:37.161Z,778
2023-03-29T10:10:20.867Z,778
2023-03-29T10:12:04.578Z,779
2023-03-29T10:13:48.296Z,778
2023-03-29T10:15:31.973Z,779
2023-03-29T10:17:15.675Z,778
2023-03-29T10:18:59.383Z,778
2023-03-29T10:20:43.090Z,779
2023-03-29T10:22:26.791Z,777
2023-03-29T10:24:10.520Z,779
2023-03-29T10:25:54.182Z,778
2023-03-29T10:27:37.883Z,779
2023-03-29T10:29:21.601Z,779
2023-03-29T10:31:05.340Z,778
2023-03-29T10:32:48.982Z,779
2023-03-29T10:34:32.698Z,778
2023-03-29T10:36:16.387Z,778
2023-03-29T10:38:00.193Z,779
2023-03-29T10:39:43.798Z,779
2023-03-29T10:41:27.504Z,778
2023-03-29T10:43:11.199Z,778
2023-03-29T10:44:54.899Z,778
2023-03-29T10:46:38.607Z,779
2023-03-29T10:48:22.303Z,778
2023-03-29T10:50:06.018Z,779
2023-03-29T10:51:49.710Z,779
2023-03-29T10:53:33.421Z,778
2023-03-29T10:55:17.117Z,779
2023-03-29T10:57:00.888Z,779
2023-03-29T10:58:44.525Z,779
2023-03-29T11:00:28.207Z,779
2023-03-29T11:02:11.948Z,778
2023-03-29T11:03:55.620Z,778
2023-03-29T11:05:39.310Z,778
2023-03-29T11:07:23.013Z,778
2023-03-29T11:09:06.724Z,778
2023-03-29T11:10:50.437Z,779
2023-03-29T11:12:34.097Z,779
2023-03-29T11:14:17.802Z,779
2023-03-29T11:16:01.520Z,778
2023-03-29T11:17:45.224Z,778
2023-03-29T11:19:28.913Z,779
2023-03-29T11:21:12.615Z,778
2023-03-29T11:22:56.316Z,778
2023-03-29T11:24:40.018Z,777
2023-03-29T11:26:23.731Z,780
2023-03-29T11:28:07.405Z,779
2023-03-29T11:29:51.131Z,779
2023-03-29T11:31:34.833Z,779
2023-03-29T11:33:18.535Z,778
2023-03-29T11:35:02.225Z,778
2023-03-29T11:36:45.937Z,780
2023-03-29T11:38:29.628Z,778
2023-03-29T11:40:13.323Z,780
2023-03-29T11:41:57.044Z,779
2023-03-29T11:43:40.746Z,779
2023-03-29T11:45:24.428Z,779
2023-03-29T11:47:08.132Z,779
2023-03-29T11:48:51.839Z,779
2023-03-29T11:50:35.544Z,779
2023-03-29T11:52:19.252Z,778
2023-03-29T11:54:02.942Z,779
2023-03-29T11:55:46.662Z,778
2023-03-29T11:57:30.358Z,779
2023-03-29T11:59:14.033Z,779
2023-03-29T12:00:57.816Z,778
2023-03-29T12:02:41.463Z,780
2023-03-29T12:06:08.865Z,779
2023-03-29T12:07:52.571Z,779
2023-03-29T12:09:36.263Z,779
2023-03-29T12:11:19.978Z,777
2023-03-29T12:13:03.666Z,779
2023-03-29T12:14:47.354Z,779
2023-03-29T12:16:31.064Z,779
2023-03-29T12:18:14.784Z,778
2023-03-29T12:19:58.468Z,779
2023-03-29T12:21:42.192Z,780
2023-03-29T12:23:25.882Z,779
2023-03-29T12:25:09.588Z,779
2023-03-29T12:26:53.293Z,779
2023-03-29T12:28:37.008Z,779
2023-03-29T12:30:20.709Z,779
2023-03-29T12:32:04.401Z,779
2023-03-29T12:33:48.103Z,779
2023-03-29T12:35:31.815Z,779
2023-03-29T12:37:15.511Z,779
2023-03-29T12:38:59.210Z,780
2023-03-29T12:40:42.908Z,779
2023-03-29T12:42:26.623Z,779
2023-03-29T12:44:10.376Z,779
2023-03-29T12:45:53.995Z,779
2023-03-29T12:47:37.719Z,779
2023-03-29T12:49:21.418Z,779
2023-03-29T12:51:05.103Z,779
2023-03-29T12:52:48.790Z,779
2023-03-29T12:54:32.499Z,779
2023-03-29T12:56:16.219Z,779
2023-03-29T12:57:59.911Z,776
2023-03-29T12:59:43.613Z,778
2023-03-29T13:01:27.363Z,779
2023-03-29T13:03:11.029Z,779
2023-03-29T13:04:54.729Z,779
2023-03-29T13:06:38.441Z,779
2023-03-29T13:08:22.123Z,778
2023-03-29T13:10:05.848Z,779
2023-03-29T13:11:49.531Z,779
2023-03-29T13:13:33.284Z,778
2023-03-29T13:15:16.945Z,779
2023-03-29T13:17:00.652Z,779
2023-03-29T13:18:44.329Z,779
2023-03-29T13:20:28.038Z,779
2023-03-29T13:22:11.749Z,779
2023-03-29T13:23:55.460Z,779
2023-03-29T13:25:39.142Z,779
2023-03-29T13:27:22.848Z,779
2023-03-29T13:29:06.565Z,779
2023-03-29T13:30:50.255Z,780
2023-03-29T13:32:33.942Z,779
2023-03-29T13:34:17.681Z,779
2023-03-29T13:36:01.346Z,779
2023-03-29T13:37:45.076Z,777
2023-03-29T13:39:28.757Z,780
2023-03-29T13:41:12.456Z,779
2023-03-29T13:42:56.164Z,780
2023-03-29T13:44:39.880Z,779
2023-03-29T13:46:23.572Z,780
2023-03-29T13:48:07.294Z,780
2023-03-29T13:49:51.004Z,779
2023-03-29T13:51:34.667Z,779
2023-03-29T13:53:18.374Z,779
2023-03-29T13:55:02.075Z,780
2023-03-29T13:56:45.787Z,779
2023-03-29T14:00:13.187Z,779
2023-03-29T14:01:56.878Z,780
2023-03-29T14:03:40.585Z,779
2023-03-29T14:05:24.279Z,778
2023-03-29T14:07:08.020Z,779
2023-03-29T14:08:51.693Z,779
2023-03-29T14:10:35.393Z,777
2023-03-29T14:12:19.095Z,779
2023-03-29T14:14:02.802Z,779
2023-03-29T14:15:46.528Z,779
2023-03-29T14:17:30.190Z,779
2023-03-29T14:19:13.897Z,779
2023-03-29T14:20:57.608Z,779
2023-03-29T14:22:41.329Z,779
2023-03-29T14:24:25.014Z,778
2023-03-29T14:26:08.707Z,778
2023-03-29T14:27:52.413Z,779
2023-03-29T14:29:36.120Z,779
2023-03-29T14:31:19.812Z,778
2023-03-29T14:33:03.505Z,779
2023-03-29T14:34:47.228Z,779
2023-03-29T14:36:30.931Z,779
2023-03-29T14:38:14.609Z,778
2023-03-29T14:39:58.312Z,778
2023-03-29T14:41:42.032Z,779
2023-03-29T14:43:25.736Z,778
2023-03-29T14:45:09.424Z,779
2023-03-29T14:46:53.126Z,779
2023-03-29T14:48:36.825Z,778
2023-03-29T14:50:20.519Z,777
2023-03-29T14:52:04.221Z,778
2023-03-29T14:53:47.938Z,779
2023-03-29T14:55:31.624Z,779
2023-03-29T14:57:15.370Z,778
2023-03-29T14:58:59.019Z,778
2023-03-29T15:00:42.746Z,779
2023-03-29T15:02:26.450Z,778
2023-03-29T15:04:10.146Z,778
2023-03-29T15:05:53.827Z,778
2023-03-29T15:07:37.541Z,778
2023-03-29T15:09:21.232Z,778
2023-03-29T15:11:04.932Z,778
2023-03-29T15:12:48.667Z,778
2023-03-29T15:14:32.359Z,778
2023-03-29T15:16:16.061Z,778
2023-03-29T15:17:59.749Z,778
2023-03-29T15:19:43.467Z,779
2023-03-29T15:21:27.170Z,778
2023-03-29T15:23:10.857Z,777
2023-03-29T15:24:54.563Z,779
2023-03-29T15:26:38.265Z,779
2023-03-29T15:28:21.961Z,778
2023-03-29T15:30:05.661Z,778
2023-03-29T15:31:49.348Z,778
2023-03-29T15:33:33.058Z,778
2023-03-29T15:35:16.789Z,779
2023-03-29T15:37:00.466Z,778
2023-03-29T15:38:44.160Z,778
2023-03-29T15:40:27.873Z,778
2023-03-29T15:42:11.568Z,778
2023-03-29T15:43:55.277Z,776
2023-03-29T15:45:38.983Z,778
2023-03-29T15:47:22.691Z,778
2023-03-29T15:49:06.408Z,778
2023-03-29T15:50:50.088Z,778
2023-03-29T15:52:33.804Z,777
2023-03-29T15:54:17.546Z,777
2023-03-29T15:56:01.202Z,778
2023-03-29T15:57:44.894Z,778
2023-03-29T15:59:28.594Z,778
2023-03-29T16:01:12.297Z,777
2023-03-29T16:02:56.076Z,779
2023-03-29T16:04:39.690Z,778
2023-03-29T16:06:23.402Z,778
2023-03-29T16:08:07.133Z,778
2023-03-29T16:09:50.793Z,778
2023-03-29T16:11:34.525Z,777
2023-03-29T16:13:18.206Z,778
2023-03-29T16:15:01.934Z,778
2023-03-29T16:16:45.615Z,778
2023-03-29T16:18:29.312Z,778
2023-03-29T16:20:13.005Z,778
2023-03-29T16:21:56.727Z,778
2023-03-29T16:23:40.418Z,778
2023-03-29T16:25:24.121Z,778
2023-03-29T16:27:07.836Z,777
2023-03-29T16:28:51.539Z,778
2023-03-29T16:30:35.243Z,778
2023-03-29T16:32:18.931Z,778
2023-03-29T16:34:02.629Z,768
2023-03-29T16:35:46.400Z,761
2023-03-29T16:37:30.062Z,777
2023-03-29T16:39:13.748Z,778
2023-03-29T16:40:57.448Z,777
2023-03-29T16:42:41.169Z,777
2023-03-29T16:44:24.873Z,778
2023-03-29T16:46:08.557Z,777
2023-03-29T16:47:52.262Z,778
2023-03-29T16:49:36.011Z,777
2023-03-29T16:51:19.691Z,778
2023-03-29T16:53:03.369Z,777
2023-03-29T16:54:47.086Z,776
2023-03-29T16:56:30.780Z,693
2023-03-29T16:58:14.489Z,604
2023-03-29T16:59:58.166Z,544
2023-03-29T17:01:41.900Z,495
2023-03-29T17:03:25.611Z,461
2023-03-29T17:05:09.310Z,431
2023-03-29T17:06:53.001Z,396
2023-03-29T17:08:36.700Z,384
2023-03-29T17:10:20.405Z,361
2023-03-29T17:12:04.106Z,323
2023-03-29T17:13:47.803Z,289
2023-03-29T17:15:31.526Z,259
2023-03-29T17:17:15.327Z,238
2023-03-29T17:18:58.920Z,215
2023-03-29T17:20:42.619Z,185
2023-03-29T17:22:26.327Z,144
2023-03-29T17:24:10.052Z,117
2023-03-29T17:25:53.779Z,98
2023-03-29T17:27:37.454Z,90
2023-03-29T17:29:21.171Z,77
2023-03-29T17:31:04.857Z,60
2023-03-29T17:32:48.577Z,48
2023-03-29T17:34:32.289Z,40
2023-03-29T17:36:15.978Z,33
2023-03-29T17:37:59.692Z,29
2023-03-29T17:39:43.388Z,24
2023-03-29T17:41:27.155Z,19
2023-03-29T17:43:10.773Z,15
2023-03-29T17:44:54.484Z,12
2023-03-29T17:46:38.201Z,8
2023-03-29T17:48:21.910Z,7
2023-03-29T17:50:05.578Z,7
2023-03-29T17:51:49.301Z,7
2023-03-29T17:53:32.990Z,6
2023-03-29T17:55:16.712Z,3
2023-03-29T17:57:00.389Z,4
2023-03-29T17:58:44.105Z,3
2023-03-29T18:00:27.808Z,3
2023-03-29T18:02:11.514Z,3
2023-03-29T18:03:55.224Z,2
2023-03-29T18:05:38.907Z,1
2023-03-29T18:07:22.610Z,1
2023-03-29T18:09:06.322Z,0
2023-03-29T18:10:50.014Z,0
2023-03-29T18:12:33.726Z,0
2023-03-29T18:14:17.424Z,0
2023-03-29T18:16:01.124Z,0
2023-03-29T18:17:44.838Z,0
2023-03-29T18:19:28.519Z,0
2023-03-29T18:21:12.233Z,0
2023-03-29T18:22:55.940Z,0
2023-03-29T18:24:39.641Z,0
2023-03-29T18:26:23.363Z,0
2023-03-29T18:28:07.037Z,0
2023-03-29T18:29:50.758Z,0
2023-03-29T18:31:34.441Z,0
2023-03-29T18:33:18.137Z,0
2023-03-29T18:35:01.835Z,0
2023-03-29T18:36:45.529Z,0
2023-03-29T18:38:29.256Z,0
2023-03-29T18:40:12.945Z,1
2023-03-29T18:41:56.636Z,0
2023-03-29T18:43:40.365Z,0
2023-03-29T18:45:24.051Z,0
2023-03-29T18:47:07.769Z,0
2023-03-29T18:48:51.449Z,0
2023-03-29T18:50:35.162Z,619
2023-03-29T18:52:18.847Z,614
2023-03-29T18:54:02.568Z,174
2023-03-29T18:55:48.416Z,159
2023-03-29T18:57:29.988Z,752
2023-03-29T18:59:13.675Z,288
2023-03-29T19:00:57.370Z,348
2023-03-29T19:02:41.065Z,752
2023-03-29T19:04:24.774Z,281
2023-03-29T19:06:08.478Z,403
2023-03-29T19:07:52.189Z,328
2023-03-29T19:09:35.909Z,608
2023-03-29T19:11:19.597Z,403
2023-03-29T19:13:03.298Z,496
2023-03-29T19:14:46.990Z,335
2023-03-29T19:16:30.719Z,776
2023-03-29T19:18:14.395Z,777
2023-03-29T19:19:58.113Z,776
2023-03-29T19:21:41.826Z,777
2023-03-29T19:23:25.531Z,776
2023-03-29T19:25:09.213Z,777
2023-03-29T19:26:52.930Z,776
2023-03-29T19:28:36.625Z,775
2023-03-29T19:30:20.329Z,777
2023-03-29T19:32:04.037Z,776
2023-03-29T19:33:47.755Z,776
2023-03-29T19:35:31.443Z,775
2023-03-29T19:37:15.142Z,776
2023-03-29T19:38:58.845Z,776
2023-03-29T19:40:42.538Z,777
2023-03-29T19:42:26.258Z,775
2023-03-29T19:44:10.039Z,776
2023-03-29T19:45:53.670Z,777
2023-03-29T19:47:37.359Z,777
2023-03-29T19:49:21.052Z,777
2023-03-29T19:51:04.733Z,776
2023-03-29T19:52:48.457Z,776
2023-03-29T19:54:32.210Z,776
2023-03-29T19:56:15.865Z,776
2023-03-29T19:57:59.549Z,777
2023-03-29T19:59:43.248Z,777
2023-03-29T20:01:26.962Z,3
2023-03-29T20:03:10.663Z,3
2023-03-29T20:04:54.366Z,3
2023-03-29T20:06:38.074Z,4
2023-03-29T20:08:21.753Z,4
2023-03-29T20:10:05.464Z,3
2023-03-29T20:11:49.160Z,4
2023-03-29T20:13:32.851Z,3
2023-03-29T20:15:16.580Z,3
2023-03-29T20:17:00.292Z,3
2023-03-29T20:18:43.973Z,3
2023-03-29T20:20:27.648Z,4
2023-03-29T20:25:41.298Z,3
2023-03-29T20:27:22.478Z,3
2023-03-29T20:29:06.301Z,3
2023-03-29T20:30:49.872Z,3
2023-03-29T20:32:33.585Z,3
2023-03-29T20:34:17.275Z,3
2023-03-29T20:36:00.961Z,3
2023-03-29T20:37:44.694Z,3
2023-03-29T20:39:28.368Z,3
2023-03-29T20:41:12.068Z,3
2023-03-29T20:42:55.794Z,3
2023-03-29T20:44:39.483Z,4
2023-03-29T20:46:23.158Z,4
2023-03-29T20:48:06.885Z,5
2023-03-29T20:49:50.566Z,4
2023-03-29T20:51:34.327Z,3
2023-03-29T20:53:17.970Z,4
2023-03-29T20:55:01.682Z,4
2023-03-29T20:56:45.391Z,3
2023-03-29T20:58:29.081Z,4
2023-03-29T21:00:12.788Z,4
2023-03-29T21:01:56.473Z,4
2023-03-29T21:03:40.173Z,3
2023-03-29T21:05:23.877Z,3
2023-03-29T21:07:07.642Z,4
2023-03-29T21:08:51.286Z,3
2023-03-29T21:10:35.006Z,4
2023-03-29T21:12:18.700Z,3
2023-03-29T21:14:02.383Z,4
2023-03-29T21:15:46.089Z,4
2023-03-29T21:17:29.837Z,4
2023-03-29T21:19:13.511Z,4
2023-03-29T21:20:57.201Z,3
2023-03-29T21:22:40.922Z,4
2023-03-29T21:24:24.599Z,4
2023-03-29T21:26:08.339Z,3
2023-03-29T21:27:51.998Z,3
2023-03-29T21:29:35.708Z,4
2023-03-29T21:31:19.411Z,3
2023-03-29T21:33:03.110Z,4
2023-03-29T21:34:46.811Z,6
2023-03-29T21:36:30.512Z,5
2023-03-29T21:38:14.219Z,4
2023-03-29T21:39:57.935Z,4
2023-03-29T21:41:41.615Z,3
2023-03-29T21:43:25.316Z,5
2023-03-29T21:45:09.010Z,4
2023-03-29T21:46:52.720Z,1
2023-03-29T21:48:36.431Z,1
2023-03-29T21:50:20.118Z,1
2023-03-29T21:52:03.831Z,1
2023-03-29T21:53:47.540Z,1
2023-03-29T21:55:31.242Z,1
2023-03-29T21:57:14.945Z,0
2023-03-29T21:58:58.641Z,0
2023-03-29T22:00:42.354Z,1
2023-03-29T22:02:26.050Z,1
2023-03-29T22:04:09.767Z,0
2023-03-29T22:05:53.488Z,0
2023-03-29T22:07:37.160Z,0
2023-03-29T22:09:20.862Z,0
2023-03-29T22:11:04.568Z,0
2023-03-29T22:12:48.283Z,0
2023-03-29T22:14:31.992Z,0
2023-03-29T22:16:15.691Z,0
2023-03-29T22:17:59.370Z,0
2023-03-29T22:19:43.078Z,0
2023-03-29T22:21:26.792Z,0
2023-03-29T22:23:10.481Z,0
2023-03-29T22:24:54.191Z,0
2023-03-29T22:26:37.883Z,0
2023-03-29T22:28:21.595Z,0
2023-03-29T22:30:05.295Z,0
2023-03-29T22:31:48.978Z,0
2023-03-29T22:33:32.720Z,0
2023-03-29T22:35:16.405Z,0
2023-03-29T22:37:00.107Z,0
2023-03-29T22:38:43.806Z,0
2023-03-29T22:40:27.507Z,0
2023-03-29T22:42:11.185Z,0
2023-03-29T22:43:54.905Z,1
2023-03-29T22:45:38.597Z,0
2023-03-29T22:47:22.323Z,0
2023-03-29T22:49:06.016Z,0
2023-03-29T22:50:49.681Z,0
2023-03-29T22:52:33.395Z,0
2023-03-29T22:54:17.087Z,0
2023-03-29T22:56:00.817Z,0
2023-03-29T22:57:44.486Z,0
2023-03-29T22:59:28.210Z,0
2023-03-29T23:01:11.934Z,0
2023-03-29T23:02:55.616Z,0
2023-03-29T23:04:39.291Z,1
2023-03-29T23:06:22.999Z,0
2023-03-29T23:08:06.690Z,0
2023-03-29T23:09:50.423Z,0
2023-03-29T23:11:34.104Z,0
2023-03-29T23:13:17.802Z,0
2023-03-29T23:15:01.501Z,0
2023-03-29T23:16:45.218Z,0
2023-03-29T23:18:28.898Z,0
2023-03-29T23:20:12.603Z,0
2023-03-29T23:21:56.313Z,0
2023-03-29T23:23:40.016Z,0
2023-03-29T23:25:23.696Z,0
2023-03-29T23:27:07.393Z,0
2023-03-29T23:28:51.105Z,0
2023-03-29T23:30:34.805Z,0
2023-03-29T23:32:18.497Z,0
2023-03-29T23:34:02.216Z,0
2023-03-29T23:35:45.906Z,0
2023-03-29T23:37:29.607Z,0
2023-03-29T23:39:13.312Z,1
2023-03-29T23:40:56.998Z,0
2023-03-29T23:42:40.718Z,0
2023-03-29T23:44:24.413Z,0
2023-03-29T23:46:08.138Z,0
2023-03-29T23:47:51.806Z,0
2023-03-29T23:49:35.506Z,0
2023-03-29T23:51:19.223Z,0
2023-03-29T23:53:02.908Z,0
2023-03-29T23:54:46.619Z,0
2023-03-29T23:56:30.335Z,0
2023-03-29T23:58:14.029Z,0
2023-03-29T23:59:57.707Z,0
